createdAt,value
2023-03-28T00:00:38.700Z,-0.14
2023-03-28T00:05:51.912Z,-0.09
2023-03-28T00:11:04.107Z,-0.02
2023-03-28T00:16:10.143Z,0.00
2023-03-28T00:21:24.039Z,-0.00
2023-03-28T00:26:29.994Z,0.03
2023-03-28T00:31:35.409Z,0.02
2023-03-28T00:36:40.162Z,-0.03
2023-03-28T00:41:45.156Z,-0.05
2023-03-28T00:46:50.035Z,-0.05
2023-03-28T00:51:58.480Z,-0.00
2023-03-28T00:57:02.980Z,0.01
2023-03-28T01:02:07.576Z,0.00
2023-03-28T01:07:11.562Z,0.00
2023-03-28T01:12:16.876Z,-0.02
2023-03-28T01:17:21.505Z,-0.00
2023-03-28T01:22:56.634Z,0.15
2023-03-28T01:28:39.784Z,0.37
2023-03-28T01:33:57.977Z,0.55
2023-03-28T01:39:40.703Z,0.62
2023-03-28T01:44:47.245Z,0.71
2023-03-28T01:50:19.339Z,0.77
2023-03-28T01:56:10.155Z,0.84
2023-03-28T02:01:24.955Z,0.92
2023-03-28T02:06:31.506Z,0.93
2023-03-28T02:11:38.515Z,0.93
2023-03-28T02:17:09.678Z,0.95
2023-03-28T02:22:32.779Z,0.98
2023-03-28T02:27:37.902Z,0.99
2023-03-28T02:33:08.886Z,1.07
2023-03-28T02:38:27.940Z,1.11
2023-03-28T02:43:53.235Z,1.13
2023-03-28T02:49:15.945Z,1.14
2023-03-28T02:54:36.730Z,1.11
2023-03-28T03:00:11.837Z,1.03
2023-03-28T03:05:16.936Z,0.95
2023-03-28T03:10:22.357Z,0.90
2023-03-28T03:15:26.339Z,0.90
2023-03-28T03:20:35.258Z,0.96
2023-03-28T03:25:39.752Z,1.04
2023-03-28T03:30:49.337Z,1.12
2023-03-28T03:36:32.183Z,1.19
2023-03-28T03:41:36.669Z,1.26
2023-03-28T03:46:42.945Z,1.18
2023-03-28T03:51:46.786Z,0.96
2023-03-28T03:56:53.909Z,0.93
2023-03-28T04:01:57.977Z,1.02
2023-03-28T04:07:02.770Z,1.13
2023-03-28T04:12:07.999Z,1.18
2023-03-28T04:17:21.853Z,1.22
2023-03-28T04:22:30.139Z,1.21
2023-03-28T04:27:33.950Z,1.17
2023-03-28T04:32:38.075Z,1.08
2023-03-28T04:37:45.033Z,1.03
2023-03-28T04:42:49.985Z,0.98
2023-03-28T04:48:15.691Z,1.02
2023-03-28T04:53:20.857Z,0.99
2023-03-28T04:59:03.719Z,0.87
2023-03-28T05:04:08.730Z,0.74
2023-03-28T05:09:13.811Z,0.65
2023-03-28T05:14:17.399Z,0.60
2023-03-28T05:19:25.788Z,0.57
2023-03-28T05:24:45.674Z,0.59
2023-03-28T05:29:53.242Z,0.68
2023-03-28T05:34:57.933Z,0.78
2023-03-28T05:40:07.537Z,0.85
2023-03-28T05:45:13.331Z,0.95
2023-03-28T05:50:45.446Z,1.03
2023-03-28T05:55:50.264Z,1.08
2023-03-28T06:00:56.963Z,1.16
2023-03-28T06:06:02.228Z,1.27
2023-03-28T06:11:07.007Z,1.33
2023-03-28T06:16:30.506Z,1.31
2023-03-28T06:21:35.762Z,1.36
2023-03-28T06:26:43.052Z,1.45
2023-03-28T06:31:50.486Z,1.45
2023-03-28T06:36:55.210Z,1.50
2023-03-28T06:42:03.660Z,1.66
2023-03-28T06:47:14.492Z,2.03
2023-03-28T06:52:18.401Z,2.15
2023-03-28T06:57:23.840Z,1.97
2023-03-28T07:02:30.314Z,1.88
2023-03-28T07:07:37.311Z,1.83
2023-03-28T07:12:41.998Z,1.69
2023-03-28T07:17:50.291Z,1.64
2023-03-28T07:22:54.651Z,1.74
2023-03-28T07:27:58.927Z,1.79
2023-03-28T07:33:13.804Z,1.93
2023-03-28T07:38:22.941Z,2.24
2023-03-28T07:43:29.025Z,2.51
2023-03-28T07:48:33.456Z,2.82
2023-03-28T07:53:39.431Z,2.89
2023-03-28T07:58:43.509Z,2.77
2023-03-28T08:03:47.433Z,2.70
2023-03-28T08:08:52.338Z,2.75
2023-03-28T08:14:09.536Z,2.89
2023-03-28T08:19:15.220Z,3.07
2023-03-28T08:24:51.519Z,3.11
2023-03-28T08:29:58.453Z,2.90
2023-03-28T08:35:04.339Z,2.59
2023-03-28T08:40:14.679Z,2.52
2023-03-28T08:45:46.969Z,2.59
2023-03-28T08:51:02.847Z,2.98
2023-03-28T08:56:09.535Z,3.35
2023-03-28T09:01:13.603Z,3.48
2023-03-28T09:06:20.672Z,3.64
2023-03-28T09:11:48.800Z,3.68
2023-03-28T09:16:58.055Z,3.98
2023-03-28T09:22:15.147Z,3.93
2023-03-28T09:27:25.592Z,3.72
2023-03-28T09:32:34.895Z,4.00
2023-03-28T09:37:39.823Z,3.14
2023-03-28T09:43:01.423Z,1.44
2023-03-28T09:48:42.514Z,0.68
2023-03-28T09:53:48.703Z,0.76
2023-03-28T09:58:58.780Z,1.03
2023-03-28T10:04:21.991Z,1.77
2023-03-28T10:10:02.241Z,2.43
2023-03-28T10:15:09.135Z,2.62
2023-03-28T10:20:38.002Z,2.79
2023-03-28T10:25:45.724Z,3.07
2023-03-28T10:30:57.782Z,3.47
2023-03-28T10:36:06.727Z,3.87
2023-03-28T10:41:23.815Z,4.24
2023-03-28T10:46:58.083Z,4.53
2023-03-28T10:52:19.679Z,4.30
2023-03-28T10:57:44.403Z,4.03
2023-03-28T11:03:18.024Z,4.29
2023-03-28T11:08:30.692Z,4.41
2023-03-28T11:14:02.232Z,4.10
2023-03-28T11:19:13.353Z,3.61
2023-03-28T11:24:29.228Z,2.95
2023-03-28T11:30:12.909Z,2.93
2023-03-28T11:35:44.791Z,2.93
2023-03-28T11:40:59.082Z,2.87
2023-03-28T11:46:54.162Z,3.29
2023-03-28T11:52:21.838Z,3.39
2023-03-28T11:57:36.078Z,2.74
2023-03-28T12:02:53.563Z,2.31
2023-03-28T12:08:23.131Z,2.18
2023-03-28T12:13:46.310Z,2.43
2023-03-28T12:18:58.184Z,2.95
2023-03-28T12:24:17.999Z,3.39
2023-03-28T12:29:46.684Z,3.84
2023-03-28T12:35:01.844Z,4.11
2023-03-28T12:40:48.182Z,4.16
2023-03-28T12:45:57.825Z,4.12
2023-03-28T12:51:07.920Z,3.69
2023-03-28T12:56:16.626Z,3.11
2023-03-28T13:01:35.215Z,2.75
2023-03-28T13:07:11.352Z,2.91
2023-03-28T13:12:34.109Z,3.14
2023-03-28T13:17:39.811Z,3.30
2023-03-28T13:22:54.987Z,2.94
2023-03-28T13:28:12.657Z,2.60
2023-03-28T13:33:26.821Z,2.09
2023-03-28T13:38:30.871Z,2.18
2023-03-28T13:43:59.300Z,2.44
2023-03-28T13:49:19.341Z,2.74
2023-03-28T13:54:25.135Z,3.22
2023-03-28T13:59:41.931Z,3.54
2023-03-28T14:04:54.771Z,3.69
2023-03-28T14:09:58.640Z,3.97
2023-03-28T14:15:02.415Z,4.45
2023-03-28T14:20:08.748Z,4.80
2023-03-28T14:25:14.714Z,4.85
2023-03-28T14:30:25.124Z,4.63
2023-03-28T14:35:31.287Z,4.49
2023-03-28T14:40:37.829Z,4.56
2023-03-28T14:45:43.855Z,4.52
2023-03-28T14:50:50.823Z,4.28
2023-03-28T14:56:01.150Z,4.08
2023-03-28T15:01:08.506Z,4.18
2023-03-28T15:06:18.485Z,4.38
2023-03-28T15:11:32.986Z,4.43
2023-03-28T15:16:42.740Z,4.29
2023-03-28T15:21:55.107Z,4.18
2023-03-28T15:27:02.013Z,4.23
2023-03-28T15:32:08.281Z,4.33
2023-03-28T15:37:16.139Z,4.28
2023-03-28T15:42:19.856Z,4.25
2023-03-28T15:47:30.661Z,4.11
2023-03-28T15:52:35.558Z,4.04
2023-03-28T15:57:39.428Z,4.01
2023-03-28T16:02:44.538Z,3.94
2023-03-28T16:07:51.111Z,3.82
2023-03-28T16:12:54.990Z,3.78
2023-03-28T16:18:27.408Z,3.81
2023-03-28T16:23:33.882Z,3.82
2023-03-28T16:28:38.231Z,3.83
2023-03-28T16:33:41.946Z,3.81
2023-03-28T16:38:47.688Z,3.76
2023-03-28T16:43:51.416Z,3.66
2023-03-28T16:48:55.844Z,3.55
2023-03-28T16:54:00.209Z,3.51
2023-03-28T16:59:06.279Z,3.41
2023-03-28T17:04:10.705Z,3.37
2023-03-28T17:09:15.277Z,3.24
2023-03-28T17:14:19.758Z,3.03
2023-03-28T17:19:24.523Z,2.83
2023-03-28T17:24:30.645Z,2.67
2023-03-28T17:29:35.974Z,2.47
2023-03-28T17:34:41.685Z,2.28
2023-03-28T17:39:48.606Z,2.11
2023-03-28T17:44:55.823Z,1.91
2023-03-28T17:50:02.173Z,1.74
2023-03-28T17:55:09.006Z,1.57
2023-03-28T18:00:16.187Z,1.41
2023-03-28T18:05:23.120Z,1.15
2023-03-28T18:10:30.132Z,0.83
2023-03-28T18:15:37.297Z,0.55
2023-03-28T18:20:46.380Z,0.35
2023-03-28T18:25:52.149Z,0.21
2023-03-28T18:31:12.630Z,0.08
2023-03-28T18:36:21.971Z,-0.08
2023-03-28T18:41:30.115Z,-0.09
2023-03-28T18:59:56.986Z,-0.42
2023-03-28T19:05:03.134Z,-0.57
2023-03-28T19:10:14.649Z,-0.68
2023-03-28T19:15:21.802Z,-0.86
2023-03-28T19:20:29.273Z,-0.96
2023-03-28T19:25:38.354Z,-1.01
2023-03-28T19:30:42.853Z,-1.06
2023-03-28T19:35:51.069Z,-1.08
2023-03-28T19:41:02.692Z,-1.10
2023-03-28T19:46:15.262Z,-1.16
2023-03-28T19:51:23.118Z,-1.22
2023-03-28T19:56:29.145Z,-1.22
2023-03-28T20:01:36.123Z,-1.36
2023-03-28T20:06:41.975Z,-1.59
2023-03-28T20:11:48.879Z,-1.82
2023-03-28T20:17:03.285Z,-2.04
2023-03-28T20:22:11.744Z,-2.23
2023-03-28T20:27:20.720Z,-2.41
2023-03-28T20:32:26.110Z,-2.55
2023-03-28T20:37:32.771Z,-2.61
2023-03-28T20:42:41.296Z,-2.68
2023-03-28T20:47:50.364Z,-2.73
2023-03-28T20:52:54.656Z,-2.75
2023-03-28T20:57:59.023Z,-2.82
2023-03-28T21:03:03.972Z,-2.87
2023-03-28T21:08:08.593Z,-2.90
2023-03-28T21:13:12.844Z,-2.80
2023-03-28T21:18:17.006Z,-2.60
2023-03-28T21:23:24.141Z,-2.44
2023-03-28T21:28:28.380Z,-2.37
2023-03-28T21:33:32.009Z,-2.41
2023-03-28T21:38:36.387Z,-2.58
2023-03-28T21:43:41.970Z,-2.74
2023-03-28T21:48:48.442Z,-2.86
2023-03-28T21:53:52.601Z,-3.01
2023-03-28T21:58:57.201Z,-3.14
2023-03-28T22:04:02.348Z,-3.26
2023-03-28T22:09:06.304Z,-3.32
2023-03-28T22:14:10.522Z,-3.34
2023-03-28T22:19:19.081Z,-3.34
2023-03-28T22:24:24.995Z,-3.27
2023-03-28T22:29:28.769Z,-3.21
2023-03-28T22:34:32.793Z,-3.07
2023-03-28T22:39:37.539Z,-2.89
2023-03-28T22:44:41.481Z,-2.72
2023-03-28T22:49:46.034Z,-2.66
2023-03-28T22:54:49.869Z,-2.62
2023-03-28T22:59:56.423Z,-2.63
2023-03-28T23:05:02.216Z,-2.63
2023-03-28T23:10:09.530Z,-2.70
2023-03-28T23:15:14.107Z,-2.82
2023-03-28T23:20:19.519Z,-2.86
2023-03-28T23:25:23.387Z,-2.98
2023-03-28T23:30:27.467Z,-3.02
2023-03-28T23:35:31.653Z,-3.03
2023-03-28T23:40:35.359Z,-3.04
2023-03-28T23:45:39.190Z,-3.17
2023-03-28T23:50:43.137Z,-3.33
2023-03-28T23:55:46.926Z,-3.48
